createdAt,value
2023-05-10T00:01:14.487Z,94674.75
2023-05-10T00:03:41.412Z,94673.19
2023-05-10T00:06:08.044Z,94659.31
2023-05-10T00:08:34.628Z,94668.38
2023-05-10T00:11:01.272Z,94674.66
2023-05-10T00:13:27.896Z,94666.63
2023-05-10T00:15:54.563Z,94661.78
2023-05-10T00:18:21.146Z,94663.38
2023-05-10T00:20:47.862Z,94666.53
2023-05-10T00:23:14.433Z,94658.06
2023-05-10T00:25:41.062Z,94658.91
2023-05-10T00:28:07.643Z,94657.06
2023-05-10T00:30:34.184Z,94658.69
2023-05-10T00:33:02.012Z,94660.34
2023-05-10T00:35:28.584Z,94650.91
2023-05-10T00:37:55.426Z,94654.81
2023-05-10T00:40:21.969Z,94650.53
2023-05-10T00:42:53.265Z,94653.78
2023-05-10T00:45:20.149Z,94660.06
2023-05-10T00:47:46.939Z,94648.66
2023-05-10T00:50:14.668Z,94651.22
2023-05-10T00:52:42.584Z,94649.56
2023-05-10T00:55:13.056Z,94654.66
2023-05-10T00:57:39.879Z,94656.09
2023-05-10T01:00:07.016Z,94648.19
2023-05-10T01:02:35.322Z,94646.34
2023-05-10T01:05:04.445Z,94644.63
2023-05-10T01:07:31.008Z,94647.25
2023-05-10T01:09:58.474Z,94641.81
2023-05-10T01:12:25.225Z,94644.22
2023-05-10T01:14:52.154Z,94647.13
2023-05-10T01:17:19.140Z,94647.19
2023-05-10T01:19:45.724Z,94641.22
2023-05-10T01:22:24.496Z,94639.59
2023-05-10T01:25:20.886Z,94645.56
2023-05-10T01:28:15.441Z,94645.22
2023-05-10T01:31:22.885Z,94640.56
2023-05-10T01:34:08.930Z,94642.25
2023-05-10T01:36:52.213Z,94649.81
2023-05-10T01:39:43.789Z,94640.94
2023-05-10T01:42:20.787Z,94641.09
2023-05-10T01:44:54.715Z,94645.28
2023-05-10T01:47:31.842Z,94639.34
2023-05-10T01:50:03.783Z,94637.91
2023-05-10T01:52:38.793Z,94654.66
2023-05-10T01:55:17.478Z,94642.25
2023-05-10T01:57:47.382Z,94652.19
2023-05-10T02:00:16.145Z,94639.31
2023-05-10T02:02:46.749Z,94643.50
2023-05-10T02:05:16.175Z,94648.38
2023-05-10T02:07:44.053Z,94640.31
2023-05-10T02:10:12.467Z,94642.00
2023-05-10T02:12:43.158Z,94641.00
2023-05-10T02:15:12.542Z,94640.94
2023-05-10T02:17:40.580Z,94640.56
2023-05-10T02:20:08.744Z,94647.09
2023-05-10T02:22:37.539Z,94647.69
2023-05-10T02:25:05.038Z,94651.31
2023-05-10T02:27:32.276Z,94652.94
2023-05-10T02:29:59.471Z,94650.66
2023-05-10T02:32:28.172Z,94650.28
2023-05-10T02:34:56.517Z,94646.75
2023-05-10T02:37:23.465Z,94648.38
2023-05-10T02:39:52.989Z,94645.78
2023-05-10T02:42:23.632Z,94651.16
2023-05-10T02:44:53.754Z,94641.81
2023-05-10T02:47:20.844Z,94651.06
2023-05-10T02:49:49.221Z,94646.97
2023-05-10T02:52:24.080Z,94647.94
2023-05-10T02:54:55.313Z,94645.84
2023-05-10T02:57:28.544Z,94650.78
2023-05-10T02:59:55.572Z,94646.88
2023-05-10T03:02:22.345Z,94646.00
2023-05-10T03:04:49.007Z,94648.34
2023-05-10T03:07:16.132Z,94656.75
2023-05-10T03:09:43.394Z,94658.59
2023-05-10T03:12:28.183Z,94658.31
2023-05-10T03:14:57.269Z,94652.16
2023-05-10T03:17:35.801Z,94659.03
2023-05-10T03:20:10.725Z,94664.13
2023-05-10T03:22:48.852Z,94665.13
2023-05-10T03:25:17.556Z,94670.44
2023-05-10T03:27:46.207Z,94667.25
2023-05-10T03:30:14.012Z,94671.09
2023-05-10T03:32:41.705Z,94676.69
2023-05-10T03:35:09.952Z,94674.91
2023-05-10T03:37:37.486Z,94675.16
2023-05-10T03:40:04.733Z,94679.72
2023-05-10T03:42:33.784Z,94675.69
2023-05-10T03:45:00.330Z,94673.91
2023-05-10T03:47:27.045Z,94674.06
2023-05-10T03:49:53.669Z,94675.28
2023-05-10T03:52:20.306Z,94680.94
2023-05-10T03:54:47.271Z,94679.88
2023-05-10T03:57:13.797Z,94694.81
2023-05-10T03:59:40.309Z,94689.94
2023-05-10T04:02:06.960Z,94686.09
2023-05-10T04:04:33.503Z,94688.38
2023-05-10T04:07:00.231Z,94688.47
2023-05-10T04:09:26.882Z,94692.63
2023-05-10T04:11:53.444Z,94696.47
2023-05-10T04:14:19.982Z,94689.28
2023-05-10T04:16:46.591Z,94689.38
2023-05-10T04:19:13.177Z,94694.31
2023-05-10T04:21:39.690Z,94692.47
2023-05-10T04:24:06.413Z,94698.56
2023-05-10T04:26:32.942Z,94697.59
2023-05-10T04:28:59.508Z,94692.00
2023-05-10T04:31:26.987Z,94696.97
2023-05-10T04:33:53.862Z,94696.28
2023-05-10T04:36:20.527Z,94703.06
2023-05-10T04:38:47.046Z,94708.00
2023-05-10T04:41:13.696Z,94695.72
2023-05-10T04:43:40.244Z,94705.09
2023-05-10T04:46:08.227Z,94703.09
2023-05-10T04:48:34.971Z,94717.00
2023-05-10T04:51:01.804Z,94714.44
2023-05-10T04:53:28.398Z,94714.97
2023-05-10T04:55:54.982Z,94718.06
2023-05-10T04:58:21.824Z,94719.88
2023-05-10T05:00:48.373Z,94724.47
2023-05-10T05:03:14.958Z,94727.72
2023-05-10T05:05:41.534Z,94732.88
2023-05-10T05:08:08.077Z,94741.16
2023-05-10T05:10:34.637Z,94733.63
2023-05-10T05:13:01.263Z,94741.00
2023-05-10T05:15:28.369Z,94742.38
2023-05-10T05:17:54.915Z,94741.75
2023-05-10T05:20:21.561Z,94741.69
2023-05-10T05:22:50.600Z,94744.81
2023-05-10T05:25:17.450Z,94754.25
2023-05-10T05:27:43.972Z,94748.63
2023-05-10T05:30:10.962Z,94761.78
2023-05-10T05:32:37.537Z,94759.75
2023-05-10T05:35:04.325Z,94775.56
2023-05-10T05:37:30.857Z,94777.16
2023-05-10T05:39:57.978Z,94782.66
2023-05-10T05:42:24.568Z,94781.06
2023-05-10T05:44:51.140Z,94783.72
2023-05-10T05:47:18.397Z,94784.13
2023-05-10T05:49:46.790Z,94784.97
2023-05-10T05:52:13.678Z,94785.31
2023-05-10T05:54:40.645Z,94781.22
2023-05-10T05:57:07.633Z,94781.84
2023-05-10T05:59:34.307Z,94786.53
2023-05-10T06:02:01.561Z,94787.97
2023-05-10T06:04:28.317Z,94795.88
2023-05-10T06:06:54.930Z,94794.09
2023-05-10T06:09:21.587Z,94795.31
2023-05-10T06:11:48.149Z,94794.50
2023-05-10T06:14:14.826Z,94808.75
2023-05-10T06:16:41.549Z,94809.16
2023-05-10T06:19:08.278Z,94806.47
2023-05-10T06:21:34.828Z,94817.28
2023-05-10T06:24:01.411Z,94814.41
2023-05-10T06:26:27.985Z,94822.56
2023-05-10T06:28:54.524Z,94822.75
2023-05-10T06:31:21.052Z,94828.63
2023-05-10T06:33:47.811Z,94823.13
2023-05-10T06:36:14.410Z,94825.75
2023-05-10T06:38:41.059Z,94823.28
2023-05-10T06:41:07.688Z,94827.09
2023-05-10T06:43:34.192Z,94821.38
2023-05-10T06:46:00.767Z,94828.06
2023-05-10T06:48:27.594Z,94828.47
2023-05-10T06:50:54.203Z,94829.81
2023-05-10T06:53:20.762Z,94832.16
2023-05-10T06:55:47.461Z,94832.22
2023-05-10T06:58:14.035Z,94828.97
2023-05-10T07:00:41.553Z,94833.28
2023-05-10T07:03:08.316Z,94836.00
2023-05-10T07:05:35.130Z,94837.44
2023-05-10T07:08:02.042Z,94830.72
2023-05-10T07:10:28.623Z,94834.47
2023-05-10T07:12:55.289Z,94839.69
2023-05-10T07:15:21.971Z,94846.63
2023-05-10T07:17:48.587Z,94850.25
2023-05-10T07:20:15.402Z,94846.53
2023-05-10T07:22:42.017Z,94851.16
2023-05-10T07:25:08.719Z,94849.50
2023-05-10T07:27:35.501Z,94854.91
2023-05-10T07:30:02.520Z,94854.13
2023-05-10T07:32:29.268Z,94851.88
2023-05-10T07:34:56.026Z,94853.59
2023-05-10T07:37:22.633Z,94847.97
2023-05-10T07:39:49.155Z,94852.53
2023-05-10T07:42:15.691Z,94848.56
2023-05-10T07:44:42.739Z,94848.09
2023-05-10T07:47:09.372Z,94856.41
2023-05-10T07:49:36.662Z,94857.25
2023-05-10T07:52:04.255Z,94856.88
2023-05-10T07:54:31.034Z,94857.34
2023-05-10T07:56:57.608Z,94852.78
2023-05-10T07:59:24.157Z,94858.47
2023-05-10T08:01:50.795Z,94856.75
2023-05-10T08:04:17.354Z,94856.53
2023-05-10T08:06:43.930Z,94854.13
2023-05-10T08:09:10.606Z,94854.19
2023-05-10T08:11:37.297Z,94856.53
2023-05-10T08:14:03.902Z,94845.66
2023-05-10T08:16:30.536Z,94853.94
2023-05-10T08:18:57.235Z,94855.91
2023-05-10T08:21:23.853Z,94859.22
2023-05-10T08:23:50.595Z,94851.47
2023-05-10T08:26:17.199Z,94850.69
2023-05-10T08:28:43.716Z,94844.50
2023-05-10T08:31:10.329Z,94852.81
2023-05-10T08:33:36.880Z,94853.09
2023-05-10T08:36:03.477Z,94847.94
2023-05-10T08:38:30.068Z,94850.28
2023-05-10T08:41:00.068Z,94849.84
2023-05-10T08:43:29.929Z,94852.94
2023-05-10T08:45:57.938Z,94861.75
2023-05-10T08:48:25.797Z,94858.56
2023-05-10T08:50:58.515Z,94855.13
2023-05-10T08:53:28.895Z,94855.38
2023-05-10T08:55:56.514Z,94860.50
2023-05-10T08:58:23.203Z,94859.00
2023-05-10T09:00:51.968Z,94858.13
2023-05-10T09:03:19.236Z,94852.88
2023-05-10T09:05:46.097Z,94861.75
2023-05-10T09:08:13.932Z,94856.44
2023-05-10T09:10:41.200Z,94864.25
2023-05-10T09:13:09.966Z,94868.03
2023-05-10T09:15:36.594Z,94872.19
2023-05-10T09:18:03.498Z,94879.53
2023-05-10T09:20:30.115Z,94873.69
2023-05-10T09:22:56.736Z,94872.28
2023-05-10T09:25:23.635Z,94865.06
2023-05-10T09:27:50.403Z,94865.94
2023-05-10T09:30:18.965Z,94868.81
2023-05-10T09:32:47.468Z,94861.41
2023-05-10T09:35:16.093Z,94863.66
2023-05-10T09:37:46.832Z,94861.78
2023-05-10T09:40:24.182Z,94861.78
2023-05-10T09:43:06.956Z,94869.31
2023-05-10T09:45:37.728Z,94870.09
2023-05-10T09:48:05.370Z,94867.47
2023-05-10T09:50:32.118Z,94866.94
2023-05-10T09:53:04.272Z,94864.72
2023-05-10T09:55:36.887Z,94864.34
2023-05-10T09:58:03.435Z,94859.84
2023-05-10T10:00:36.830Z,94862.31
2023-05-10T10:03:04.302Z,94859.53
2023-05-10T10:05:34.481Z,94861.47
2023-05-10T10:08:04.339Z,94860.66
2023-05-10T10:10:32.157Z,94851.94
2023-05-10T10:12:59.218Z,94854.16
2023-05-10T10:15:26.197Z,94845.66
2023-05-10T10:17:54.328Z,94853.88
2023-05-10T10:20:23.526Z,94852.50
2023-05-10T10:22:50.733Z,94842.59
2023-05-10T10:25:19.058Z,94846.81
2023-05-10T10:27:55.037Z,94846.28
2023-05-10T10:30:36.544Z,94849.06
2023-05-10T10:33:31.019Z,94845.47
2023-05-10T10:36:00.255Z,94849.41
2023-05-10T10:38:26.959Z,94850.09
2023-05-10T10:41:03.757Z,94845.22
2023-05-10T10:43:31.234Z,94844.50
2023-05-10T10:46:13.700Z,94839.81
2023-05-10T10:48:41.370Z,94848.13
2023-05-10T10:51:08.736Z,94858.94
2023-05-10T10:53:38.059Z,94857.25
2023-05-10T10:56:11.659Z,94865.00
2023-05-10T10:58:39.585Z,94864.22
2023-05-10T11:01:17.834Z,94852.47
2023-05-10T11:04:11.117Z,94863.06
2023-05-10T11:06:37.751Z,94855.75
2023-05-10T11:09:14.000Z,94855.88
2023-05-10T11:11:56.208Z,94847.28
2023-05-10T11:14:23.641Z,94842.06
2023-05-10T11:16:50.388Z,94847.31
2023-05-10T11:19:18.447Z,94854.84
2023-05-10T11:22:12.081Z,94862.88
2023-05-10T11:24:38.577Z,94866.75
2023-05-10T11:27:06.319Z,94874.28
2023-05-10T11:29:32.868Z,94894.47
2023-05-10T11:32:00.505Z,94898.16
2023-05-10T11:34:32.154Z,94891.00
2023-05-10T11:36:59.124Z,94899.78
2023-05-10T11:39:30.847Z,94886.97
2023-05-10T11:41:58.401Z,94896.13
2023-05-10T11:44:30.925Z,94897.31
2023-05-10T11:47:00.773Z,94901.97
2023-05-10T11:49:27.306Z,94912.97
2023-05-10T11:51:53.833Z,94918.06
2023-05-10T11:54:20.577Z,94921.53
2023-05-10T11:56:47.136Z,94919.09
2023-05-10T11:59:15.715Z,94918.94
2023-05-10T12:01:42.606Z,94918.34
2023-05-10T12:04:09.445Z,94918.53
2023-05-10T12:06:41.902Z,94927.06
2023-05-10T12:09:09.249Z,94924.22
2023-05-10T12:11:42.536Z,94927.69
2023-05-10T12:14:10.803Z,94935.66
2023-05-10T12:16:37.423Z,94931.16
2023-05-10T12:19:04.156Z,94937.69
2023-05-10T12:21:34.321Z,94934.81
2023-05-10T12:24:03.510Z,94934.81
2023-05-10T12:26:30.899Z,94935.66
2023-05-10T12:29:13.754Z,94942.56
2023-05-10T12:31:58.205Z,94940.75
2023-05-10T12:34:31.472Z,94941.31
2023-05-10T12:36:58.150Z,94940.09
2023-05-10T12:39:25.725Z,94946.00
2023-05-10T12:41:53.136Z,94942.09
2023-05-10T12:44:19.870Z,94952.31
2023-05-10T12:46:46.546Z,94950.91
2023-05-10T12:49:13.077Z,94943.94
2023-05-10T12:51:39.608Z,94949.25
2023-05-10T12:54:31.502Z,94953.97
2023-05-10T12:56:58.118Z,94949.44
2023-05-10T12:59:24.706Z,94957.00
2023-05-10T13:01:51.240Z,94956.38
2023-05-10T13:04:18.081Z,94954.94
2023-05-10T13:06:44.721Z,94951.47
2023-05-10T13:09:11.504Z,94953.09
2023-05-10T13:11:38.492Z,94952.91
2023-05-10T13:14:05.276Z,94954.53
2023-05-10T13:16:33.391Z,94961.25
2023-05-10T13:19:00.346Z,94958.56
2023-05-10T13:21:27.600Z,94965.09
2023-05-10T13:23:54.204Z,94975.50
2023-05-10T13:26:21.075Z,94967.56
2023-05-10T13:28:47.578Z,94967.75
2023-05-10T13:31:14.151Z,94967.38
2023-05-10T13:33:40.895Z,94961.84
2023-05-10T13:36:07.608Z,94955.13
2023-05-10T13:38:34.139Z,94965.75
2023-05-10T13:41:00.961Z,94955.72
2023-05-10T13:43:27.720Z,94963.09
2023-05-10T13:45:54.308Z,94962.63
2023-05-10T13:48:20.923Z,94962.03
2023-05-10T13:50:48.001Z,94964.31
2023-05-10T13:53:15.359Z,94964.50
2023-05-10T13:55:42.264Z,94963.28
2023-05-10T13:58:08.793Z,94959.84
2023-05-10T14:00:35.328Z,94961.28
2023-05-10T14:03:02.044Z,94957.16
2023-05-10T14:05:28.874Z,94952.25
2023-05-10T14:07:55.855Z,94955.31
2023-05-10T14:10:22.474Z,94953.53
2023-05-10T14:12:49.138Z,94956.97
2023-05-10T14:15:15.858Z,94959.00
2023-05-10T14:17:42.616Z,94958.00
2023-05-10T14:20:09.685Z,94962.50
2023-05-10T14:22:36.423Z,94960.69
2023-05-10T14:25:03.067Z,94954.56
2023-05-10T14:27:30.041Z,94952.50
2023-05-10T14:29:56.628Z,94954.56
2023-05-10T14:32:23.519Z,94955.41
2023-05-10T14:34:50.053Z,94943.94
2023-05-10T14:37:17.189Z,94960.84
2023-05-10T14:39:43.770Z,94962.53
2023-05-10T14:42:10.295Z,94963.97
2023-05-10T14:44:36.963Z,94961.31
2023-05-10T14:47:03.485Z,94971.50
2023-05-10T14:49:30.167Z,94962.31
2023-05-10T14:51:56.930Z,94960.28
2023-05-10T14:54:23.527Z,94967.63
2023-05-10T14:56:50.959Z,94970.28
2023-05-10T14:59:17.807Z,94969.25
2023-05-10T15:01:45.181Z,94974.34
2023-05-10T15:04:13.863Z,94971.88
2023-05-10T15:06:40.844Z,94969.88
2023-05-10T15:09:07.407Z,94976.59
2023-05-10T15:11:34.038Z,94975.19
2023-05-10T15:14:00.787Z,94969.66
2023-05-10T15:16:27.566Z,94972.09
2023-05-10T15:18:54.173Z,94973.31
2023-05-10T15:21:20.771Z,94977.41
2023-05-10T15:23:47.433Z,94978.00
2023-05-10T15:26:13.957Z,94976.19
2023-05-10T15:28:40.696Z,94979.84
2023-05-10T15:31:07.322Z,94987.00
2023-05-10T15:33:33.885Z,94986.69
2023-05-10T15:36:00.436Z,94987.75
2023-05-10T15:38:27.027Z,94988.72
2023-05-10T15:40:58.476Z,94982.44
2023-05-10T15:43:25.182Z,94988.34
2023-05-10T15:45:51.977Z,94985.50
2023-05-10T15:48:18.480Z,94984.75
2023-05-10T15:50:45.261Z,94984.31
2023-05-10T15:53:11.817Z,94993.28
2023-05-10T15:55:38.371Z,94998.00
2023-05-10T15:58:04.935Z,95008.16
2023-05-10T16:00:31.614Z,95001.22
2023-05-10T16:02:58.323Z,95011.34
2023-05-10T16:05:27.359Z,95008.78
2023-05-10T16:07:54.942Z,95006.66
2023-05-10T16:10:21.491Z,95005.00
2023-05-10T16:12:48.186Z,95017.44
2023-05-10T16:15:14.935Z,95014.63
2023-05-10T16:17:41.907Z,95014.41
2023-05-10T16:20:08.856Z,95015.44
2023-05-10T16:22:35.805Z,95013.16
2023-05-10T16:25:02.418Z,95014.19
2023-05-10T16:27:30.349Z,95019.28
2023-05-10T16:29:56.999Z,95021.09
2023-05-10T16:32:23.642Z,95019.47
2023-05-10T16:34:50.381Z,95025.19
2023-05-10T16:37:17.064Z,95022.94
2023-05-10T16:39:43.824Z,95015.44
2023-05-10T16:42:10.352Z,95025.03
2023-05-10T16:44:36.958Z,95024.84
2023-05-10T16:47:03.490Z,95027.88
2023-05-10T16:49:30.012Z,95030.50
2023-05-10T16:51:56.838Z,95033.34
2023-05-10T16:54:23.508Z,95038.47
2023-05-10T16:56:50.077Z,95043.00
2023-05-10T16:59:17.496Z,95043.53
2023-05-10T17:01:44.845Z,95046.34
2023-05-10T17:04:11.525Z,95056.91
2023-05-10T17:06:38.486Z,95052.41
2023-05-10T17:09:05.735Z,95054.06
2023-05-10T17:11:32.659Z,95061.22
2023-05-10T17:13:59.648Z,95064.66
2023-05-10T17:16:26.902Z,95065.31
2023-05-10T17:18:53.538Z,95069.13
2023-05-10T17:21:20.363Z,95071.22
2023-05-10T17:23:46.871Z,95071.72
2023-05-10T17:26:13.436Z,95076.56
2023-05-10T17:28:39.947Z,95073.47
2023-05-10T17:31:06.681Z,95073.31
2023-05-10T17:33:33.280Z,95078.09
2023-05-10T17:35:59.804Z,95076.53
2023-05-10T17:38:26.336Z,95076.13
2023-05-10T17:40:52.884Z,95076.03
2023-05-10T17:43:20.138Z,95078.53
2023-05-10T17:45:49.308Z,95081.56
2023-05-10T17:48:15.885Z,95085.59
2023-05-10T17:50:43.439Z,95085.22
2023-05-10T17:53:10.411Z,95085.22
2023-05-10T17:55:40.828Z,95082.38
2023-05-10T17:58:07.527Z,95090.72
2023-05-10T18:00:35.821Z,95086.31
2023-05-10T18:03:03.289Z,95089.44
2023-05-10T18:05:30.327Z,95090.66
2023-05-10T18:07:57.047Z,95083.38
2023-05-10T18:10:24.844Z,95094.34
2023-05-10T18:12:52.295Z,95098.50
2023-05-10T18:15:18.921Z,95089.06
2023-05-10T18:17:45.568Z,95092.78
2023-05-10T18:20:12.954Z,95086.97
2023-05-10T18:22:39.876Z,95093.78
2023-05-10T18:25:07.023Z,95091.84
2023-05-10T18:27:34.288Z,95085.00
2023-05-10T18:30:00.815Z,95092.47
2023-05-10T18:32:27.971Z,95089.59
2023-05-10T18:34:55.794Z,95091.47
2023-05-10T18:37:22.830Z,95088.31
2023-05-10T18:39:49.859Z,95090.97
2023-05-10T18:42:16.428Z,95090.19
2023-05-10T18:44:42.938Z,95097.69
2023-05-10T18:47:09.444Z,95095.50
2023-05-10T18:49:35.964Z,95100.34
2023-05-10T18:52:02.497Z,95094.34
2023-05-10T18:54:29.930Z,95091.81
2023-05-10T18:56:58.455Z,95089.59
2023-05-10T18:59:25.597Z,95089.88
2023-05-10T19:01:53.170Z,95094.28
2023-05-10T19:04:21.783Z,95094.38
2023-05-10T19:06:48.421Z,95097.28
2023-05-10T19:09:14.979Z,95099.19
2023-05-10T19:11:43.137Z,95097.28
2023-05-10T19:14:09.750Z,95106.78
2023-05-10T19:16:37.062Z,95103.78
2023-05-10T19:19:03.998Z,95100.88
2023-05-10T19:21:31.508Z,95107.44
2023-05-10T19:23:58.769Z,95109.91
2023-05-10T19:26:25.287Z,95106.59
2023-05-10T19:28:52.449Z,95107.31
2023-05-10T19:31:20.124Z,95106.75
2023-05-10T19:33:47.178Z,95112.72
2023-05-10T19:36:13.802Z,95110.78
2023-05-10T19:38:40.598Z,95114.81
2023-05-10T19:41:07.204Z,95110.53
2023-05-10T19:43:37.625Z,95112.88
2023-05-10T19:46:04.540Z,95110.06
2023-05-10T19:48:31.664Z,95108.50
2023-05-10T19:51:03.366Z,95115.63
2023-05-10T19:53:30.107Z,95114.38
2023-05-10T19:55:56.717Z,95114.19
2023-05-10T19:58:23.555Z,95114.19
2023-05-10T20:00:50.152Z,95112.63
2023-05-10T20:03:16.804Z,95107.97
2023-05-10T20:05:43.427Z,95106.91
2023-05-10T20:08:10.025Z,95108.28
2023-05-10T20:10:36.596Z,95109.34
2023-05-10T20:13:03.130Z,95114.44
2023-05-10T20:15:29.848Z,95112.28
2023-05-10T20:17:56.605Z,95115.19
2023-05-10T20:20:23.592Z,95114.38
2023-05-10T20:22:50.608Z,95112.06
2023-05-10T20:25:18.355Z,95109.56
2023-05-10T20:27:45.407Z,95114.06
2023-05-10T20:30:12.296Z,95121.09
2023-05-10T20:32:39.269Z,95113.47
2023-05-10T20:35:07.043Z,95111.44
2023-05-10T20:37:33.892Z,95119.28
2023-05-10T20:40:00.506Z,95103.72
2023-05-10T20:42:27.130Z,95111.28
2023-05-10T20:44:53.688Z,95110.25
2023-05-10T20:47:20.362Z,95110.22
2023-05-10T20:49:46.968Z,95108.00
2023-05-10T20:52:13.789Z,95112.28
2023-05-10T20:54:40.642Z,95108.53
2023-05-10T20:57:07.432Z,95113.84
2023-05-10T20:59:34.162Z,95098.81
2023-05-10T21:02:01.151Z,95101.41
2023-05-10T21:04:27.936Z,95102.81
2023-05-10T21:06:56.048Z,95104.44
2023-05-10T21:09:22.797Z,95098.66
2023-05-10T21:11:50.694Z,95094.59
2023-05-10T21:14:17.221Z,95095.88
2023-05-10T21:16:43.873Z,95095.81
2023-05-10T21:19:10.531Z,95098.66
2023-05-10T21:21:37.180Z,95090.63
2023-05-10T21:24:04.102Z,95094.09
2023-05-10T21:26:31.293Z,95084.16
2023-05-10T21:28:59.190Z,95081.28
2023-05-10T21:31:25.993Z,95085.09
2023-05-10T21:33:52.595Z,95088.56
2023-05-10T21:36:19.247Z,95078.53
2023-05-10T21:38:46.365Z,95074.06
2023-05-10T21:41:12.975Z,95081.16
2023-05-10T21:43:39.473Z,95086.66
2023-05-10T21:46:07.125Z,95080.66
2023-05-10T21:48:33.799Z,95086.78
2023-05-10T21:51:01.524Z,95080.53
2023-05-10T21:53:28.832Z,95079.34
2023-05-10T21:55:56.229Z,95084.38
2023-05-10T21:58:23.051Z,95075.25
2023-05-10T22:00:49.755Z,95072.25
2023-05-10T22:03:16.419Z,95075.03
2023-05-10T22:05:43.088Z,95081.53
2023-05-10T22:08:09.627Z,95081.53
2023-05-10T22:10:36.227Z,95084.03
2023-05-10T22:13:03.169Z,95080.22
2023-05-10T22:15:31.144Z,95085.91
2023-05-10T22:17:57.884Z,95084.84
2023-05-10T22:20:24.448Z,95092.06
2023-05-10T22:22:51.189Z,95080.78
2023-05-10T22:25:17.825Z,95083.25
2023-05-10T22:27:44.420Z,95093.34
2023-05-10T22:30:11.323Z,95091.06
2023-05-10T22:32:38.078Z,95084.59
2023-05-10T22:35:04.912Z,95085.19
2023-05-10T22:37:31.522Z,95093.38
2023-05-10T22:39:58.051Z,95088.50
2023-05-10T22:42:24.602Z,95090.06
2023-05-10T22:44:51.288Z,95084.25
2023-05-10T22:47:17.819Z,95087.88
2023-05-10T22:49:44.344Z,95083.25
2023-05-10T22:52:11.008Z,95086.34
2023-05-10T22:54:37.548Z,95091.47
2023-05-10T22:57:04.491Z,95092.34
2023-05-10T22:59:31.529Z,95083.56
2023-05-10T23:01:58.269Z,95082.31
2023-05-10T23:04:25.027Z,95085.72
2023-05-10T23:06:51.772Z,95093.63
2023-05-10T23:09:18.459Z,95093.00
2023-05-10T23:11:45.025Z,95085.63
2023-05-10T23:14:11.859Z,95078.06
2023-05-10T23:16:38.456Z,95085.09
2023-05-10T23:19:05.146Z,95084.25
2023-05-10T23:21:32.281Z,95094.00
2023-05-10T23:23:59.085Z,95083.50
2023-05-10T23:26:25.813Z,95089.09
2023-05-10T23:28:52.429Z,95088.97
2023-05-10T23:31:18.972Z,95082.16
2023-05-10T23:33:45.573Z,95084.38
2023-05-10T23:36:12.345Z,95082.94
2023-05-10T23:38:39.585Z,95081.34
2023-05-10T23:41:06.187Z,95078.75
2023-05-10T23:43:32.817Z,95087.38
2023-05-10T23:45:59.536Z,95083.41
2023-05-10T23:48:26.161Z,95082.31
2023-05-10T23:50:52.701Z,95083.50
2023-05-10T23:53:19.240Z,95078.38
2023-05-10T23:55:45.834Z,95076.56
2023-05-10T23:58:12.467Z,95073.31
